Algiers, Indiana
Current Conditions -  °F | °C
As of 4:55 PM on Friday 31 Oct 2014 (Local Time) from KDCY Reporting Station
Overcast Overcast  
Wind Chill: 27°   Ceiling: 3200
Heat Index: 38°   Visibility: 10mi
Dew Point: 33°   Wind: 24mph
Humidity: 83%   Direction: 320°NW
Pressure: 30.12"   Gusts: 33mph
Location:  38.4723°N, 87.3105°W
Report Text: KDCY 312155Z AUTO 32021G29KT 10SM SCT020 BKN032 OVC050 03/01 A3012 RMK AO2 T00320006
Loading
Personal Weather Stations






























Interactive Weather Map
Tropical Storm Tracking
New forecast layout! Learn more

10-Day Weather Forecast

Advertisements
Track Severe Weather on mobile